To NAV CANADA Home Page Login to a new session Search on AWWS site Feedback and Comments Disclaimer Vers la page française équivalente Tips FAQ What's new on the site To the Forecasts and Observations / NOTAM section To "File a Flight Plan" website Publications and other links Update of the User's profile FIC Telephone Numbers My Weather Data Folder Route Weather Data Regional Weather Data Local Weather Data To the Forecasts and Observations / NOTAM section
Request Generated 08/27/2016 at 08:06:14 UTC . Weather information available at that time is displayed.

METAR/TAF

CLYDE RIVER/NU    (show WxCam)

METAR CYCY 270800Z AUTO 35003KT 1/8SM FG VV002 07/07 A2999 RMK
SLP159=
SPECI CYCY 270746Z AUTO 34004KT 1SM BR BKN003 OVC007 07/07 A2999 RMK
SLP158=
SPECI CYCY 270745Z AUTO 34004KT 1 1/2SM BR BKN003 OVC007 07/07 A2999
RMK SLP158=
SPECI CYCY 270744Z AUTO 34004KT 2 1/4SM BR BKN003 OVC007 07/07 A2999
RMK SLP158=
SPECI CYCY 270742Z AUTO 34004KT 5SM BR BKN003 OVC007 07/07 A2998 RMK
SLP157=
SPECI CYCY 270721Z AUTO 35004KT 6SM BR OVC003 07/07 A2999 RMK SLP158=
SPECI CYCY 270713Z AUTO 01004KT 3SM BR OVC003 07/07 A2998 RMK SLP157=
SPECI CYCY 270711Z AUTO 01004KT 2 1/4SM BR OVC003 07/07 A2998 RMK
SLP157=
SPECI CYCY 270707Z AUTO 02003KT 1 1/4SM BR VV003 07/07 A2998 RMK
SLP157=
METAR CYCY 270700Z AUTO 02002KT 3/4SM BR VV003 07/07 A2998 RMK
SLP156=
METAR CYCY 270600Z AUTO 01003KT 3/4SM BR OVC003 07/07 A2997 RMK
SLP153=

TAF CYCY 270638Z 2707/2719 VRB03KT 1/4SM -DZ FG VV003 TEMPO 2707/2716
5SM BR OVC008
BECMG 2710/2712 33007KT
FM271600 33008KT P6SM SCT005 OVC012 TEMPO 2716/2719 3SM BR OVC005
RMK FCST BASED ON AUTO OBS. NXT FCST BY 271300Z=
Your time UTC time
Weather data provided by Environment Canada and NAV CANADA